Latest Weather Observations for Mullion

IDN60901

Issued at 8:11 pm EST Saturday 25 June 2022 (issued every 10 minutes, with the page automatically refreshed every 10 minutes)

About weather observations | Map of Canberra area stations | Latest observations for Canberra area | Other Formats
Station Details ID: 250070 Name: MULLION (PCS) Lat: -35.11 Lon: 148.85 Height: 750.0 m

Portable automatic weather stations (PAWS) are operated by other organisations, such as Fire and Emergency Services, and are included here by agreement. Portable stations may be deployed to a location for a short period and their location may be subject to change without notice. Wind observations from these stations are provided from heights of either three (3) or ten (10) metres above ground level (AGL).

Data from the previous 72 hours. | See also: Recent months for locations in Aust Capital Territory
Date/Time
EST
Temp
°C
App
Temp
°C
Dew
Point
°C
Rel
Hum
%
Delta-T
°C
Wind Press
QNH
hPa
Press
MSL
hPa
Rain since
9am
mm
Dir  Spd
km/h
Gust
km/h
Spd
kts
Gust
kts
25/08:00pm 7.1 4.2 4.7 85 1.1 NNW 9 13 5 7 1024.6 - 0.0
25/07:50pm 7.0 3.3 4.7 85 1.1 NNW 13 15 7 8 1024.5 - 0.0
25/07:40pm 6.9 2.5 4.9 87 0.9 NW 17 19 9 10 1024.6 - 0.0
25/07:30pm 6.9 2.5 4.7 86 1.0 WNW 17 17 9 9 1024.5 - 0.0
25/07:20pm 6.9 2.9 4.8 86 1.0 WNW 15 17 8 9 1024.6 - 0.0
25/07:10pm 6.9 2.9 4.7 86 1.0 WNW 15 17 8 9 1024.5 - 0.0
25/07:00pm 6.9 2.5 4.8 86 1.0 WNW 17 17 9 9 1024.3 - 0.0
25/06:50pm 7.2 2.8 4.8 85 1.1 WNW 17 19 9 10 1024.2 - 0.0
25/06:40pm 7.6 3.9 4.7 82 1.3 NW 13 17 7 9 1024.2 - 0.0
25/06:30pm 7.8 4.9 4.5 79 1.5 WNW 9 13 5 7 1024.1 - 0.0
25/06:20pm 8.0 4.6 4.0 76 1.8 W 11 13 6 7 1024.0 - 0.0
25/06:10pm 8.1 3.6 4.1 76 1.8 W 17 24 9 13 1023.9 - 0.0
25/06:00pm 8.0 4.2 4.1 76 1.8 WNW 13 19 7 10 1023.8 - 0.0
25/05:50pm 7.9 4.2 4.5 79 1.6 WNW 13 17 7 9 1023.7 - 0.0
25/05:40pm 8.1 4.0 4.4 77 1.7 WNW 15 17 8 9 1023.4 - 0.0
25/05:30pm 8.1 3.7 4.5 78 1.7 WNW 17 24 9 13 1023.4 - 0.0
25/05:20pm 8.4 3.4 4.5 76 1.8 WNW 20 24 11 13 1023.1 - 0.0
25/05:10pm 8.7 3.3 4.3 74 2.0 WNW 22 24 12 13 1023.0 - 0.0
25/05:00pm 8.9 3.0 3.9 71 2.3 W 24 30 13 16 1022.9 - 0.0
25/04:50pm 9.3 1.9 3.9 69 2.5 W 32 39 17 21 1022.8 - 0.0
25/04:40pm 9.6 3.0 4.4 70 2.4 W 28 33 15 18 1022.8 - 0.0
25/04:30pm 9.8 4.0 4.5 69 2.5 W 24 32 13 17 1022.7 - 0.0
25/04:20pm 9.8 3.2 4.0 67 2.7 W 28 33 15 18 1022.8 - 0.0
25/04:10pm 10.2 3.9 3.7 64 3.0 W 26 30 14 16 1022.7 - 0.0
25/04:00pm 10.4 4.1 3.9 64 3.0 W 26 30 14 16 1022.6 - 0.0
25/03:50pm 10.7 5.3 4.6 66 2.9 WNW 22 26 12 14 1022.5 - 0.0
25/03:40pm 10.6 1.5 4.0 63 3.1 W 41 48 22 26 1022.8 - 0.0
25/03:30pm 10.8 3.3 3.7 61 3.3 W 32 39 17 21 1022.5 - 0.0
25/03:20pm 11.0 4.7 3.8 61 3.3 W 26 32 14 17 1022.2 - 0.0
25/03:10pm 11.0 5.2 4.4 64 3.1 W 24 33 13 18 1022.2 - 0.0
25/03:00pm 10.7 3.2 3.6 61 3.3 W 32 35 17 19 1022.2 - 0.0
25/02:50pm 10.6 2.2 3.7 62 3.2 W 37 44 20 24 1022.3 - 0.0
25/02:40pm 10.5 4.2 4.0 64 3.0 W 26 32 14 17 1022.3 - 0.0
25/02:30pm 10.8 2.8 3.9 62 3.2 W 35 54 19 29 1022.2 - 0.0
25/02:20pm 10.5 1.7 3.7 63 3.1 W 39 50 21 27 1022.3 - 0.0
25/02:10pm 10.7 3.6 3.7 62 3.2 WNW 30 41 16 22 1022.3 - 0.0
25/02:00pm 10.7 5.4 4.9 67 2.7 W 22 26 12 14 1022.3 - 0.0
25/01:50pm 10.4 3.5 4.4 66 2.8 W 30 35 16 19 1022.4 - 0.0
25/01:40pm 10.4 3.2 4.8 68 2.6 WNW 32 35 17 19 1022.3 - 0.0
25/01:30pm 10.4 4.7 4.7 68 2.7 NW 24 30 13 16 1022.1 - 0.0
25/01:20pm 10.0 2.4 4.1 67 2.7 W 33 43 18 23 1022.5 - 0.0
25/01:10pm 9.9 2.6 4.3 68 2.6 WNW 32 37 17 20 1022.8 - 0.0
25/01:00pm 10.0 2.5 4.5 68 2.6 WNW 33 39 18 21 1022.4 - 0.0
25/12:40pm 10.2 0.7 4.1 66 2.8 WNW 43 50 23 27 1022.5 - 0.0
25/12:30pm 10.6 1.5 3.9 63 3.1 W 41 52 22 28 1022.8 - 0.0
25/12:20pm 10.2 0.0 3.1 61 3.2 W 46 54 25 29 1022.6 - 0.0
25/12:10pm 10.0 0.2 3.4 63 3.0 W 44 52 24 28 1022.8 - 0.0
25/12:00pm 10.0 -0.9 3.7 65 2.9 W 50 59 27 32 1023.2 - 0.0
25/11:50am 10.2 1.0 3.6 63 3.0 W 41 52 22 28 1023.1 - 0.0
25/11:40am 10.1 0.9 3.6 64 3.0 W 41 52 22 28 1023.4 - 0.0
25/11:30am 10.2 2.4 4.9 69 2.5 W 35 41 19 22 1023.0 - 0.0
25/11:20am 10.2 3.2 4.0 65 2.9 WNW 30 43 16 23 1023.1 - 0.0
25/11:10am 9.8 3.4 5.1 72 2.2 WNW 28 35 15 19 1023.3 - 0.0
25/11:00am 9.7 1.5 4.5 70 2.4 W 37 41 20 22 1023.1 - 0.0
25/10:50am 9.5 1.1 3.9 68 2.6 W 37 46 20 25 1022.9 - 0.0
25/10:40am 9.4 2.0 4.0 69 2.5 W 32 39 17 21 1023.1 - 0.0
25/10:30am 9.6 4.5 4.3 69 2.5 WNW 20 26 11 14 1023.3 - 0.0
25/10:20am 9.4 4.7 5.1 74 2.0 WNW 19 20 10 11 1023.2 - 0.0
25/10:10am 8.8 3.4 4.6 75 1.9 WNW 22 28 12 15 1023.4 - 0.0
25/10:00am 8.4 3.0 4.6 77 1.8 WNW 22 26 12 14 1023.3 - 0.0
25/09:50am 8.7 3.8 5.1 78 1.7 WNW 20 33 11 18 1023.1 - 0.0
25/09:40am 8.7 3.4 4.9 77 1.8 WNW 22 33 12 18 1023.2 - 0.0
25/09:30am 8.5 3.8 5.2 80 1.5 NW 19 26 10 14 1022.8 - 0.0
25/09:20am 8.2 3.4 5.5 83 1.3 WNW 20 28 11 15 1022.6 - 0.0
25/09:10am 7.6 0.7 4.6 81 1.4 WNW 30 37 16 20 1022.4 - 0.0
25/09:00am 7.0 -1.2 5.0 87 0.9 WNW 37 41 20 22 1022.3 - 0.4
25/08:50am 5.9 -1.9 5.1 95 0.4 WNW 35 37 19 20 1022.4 - 0.4
25/08:40am 5.4 -2.0 5.2 99 0.1 WNW 33 35 18 19 1022.2 - 0.4
25/08:30am 5.6 -0.8 5.2 97 0.2 WNW 28 30 15 16 1022.2 - 0.4
25/08:20am 5.6 -0.5 5.0 96 0.3 WNW 26 28 14 15 1022.2 - 0.4
25/08:10am 5.4 0.1 5.1 98 0.1 WNW 22 24 12 13 1022.1 - 0.4
25/08:00am 5.2 0.3 5.2 100 0.0 WNW 20 24 11 13 1022.1 - 0.4
25/07:50am 5.2 0.3 5.2 100 0.0 WNW 20 22 11 12 1022.1 - 0.4
25/07:40am 5.6 0.3 5.2 97 0.2 WNW 22 24 12 13 1022.0 - 0.4
25/07:30am 5.9 1.0 5.2 95 0.3 WNW 20 24 11 13 1021.9 - 0.4
25/07:20am 6.2 1.3 4.9 91 0.6 W 20 22 11 12 1021.9 - 0.4
25/07:10am 6.3 0.9 4.5 88 0.8 W 22 24 12 13 1021.8 - 0.4
25/07:00am 5.9 0.7 5.3 96 0.3 WNW 22 30 12 16 1021.8 - 0.4
25/06:50am 5.7 0.9 5.6 99 0.0 WNW 20 22 11 12 1021.8 - 0.4
25/06:40am 6.0 1.2 5.5 97 0.2 WNW 20 22 11 12 1021.6 - 0.4
25/06:30am 6.9 2.2 5.1 88 0.8 WNW 19 22 10 12 1021.4 - 0.4
25/06:20am 7.7 2.2 4.2 78 1.6 W 22 28 12 15 1021.4 - 0.4
25/06:10am 8.0 2.8 3.5 73 2.0 W 20 22 11 12 1021.1 - 0.4
25/06:00am 7.9 2.7 3.5 74 2.0 W 20 24 11 13 1021.3 - 0.4
25/05:50am 7.9 2.2 3.0 71 2.2 W 22 26 12 14 1020.9 - 0.4
25/05:40am 7.9 2.3 3.6 74 1.9 W 22 26 12 14 1020.7 - 0.4
25/05:30am 7.8 2.7 4.0 77 1.7 W 20 24 11 13 1020.7 - 0.4
25/05:20am 8.0 1.7 3.9 75 1.9 W 26 28 14 15 1020.6 - 0.4
25/05:10am 7.9 1.6 3.8 75 1.8 W 26 33 14 18 1020.4 - 0.4
25/05:00am 8.0 2.6 4.3 77 1.7 W 22 28 12 15 1020.5 - 0.4
25/04:50am 8.1 2.6 4.2 76 1.8 W 22 28 12 15 1020.3 - 0.4
25/04:40am 8.2 1.3 4.8 79 1.6 W 30 41 16 22 1020.1 - 0.4
25/04:30am 8.0 1.8 4.5 78 1.6 WSW 26 30 14 16 1020.2 - 0.4
25/04:20am 8.0 1.1 4.6 79 1.6 WSW 30 37 16 20 1020.1 - 0.4
25/04:10am 8.1 1.7 5.1 81 1.4 WSW 28 32 15 17 1019.9 - 0.4
25/04:00am 8.2 1.7 4.8 79 1.6 W 28 39 15 21 1020.1 - 0.4
25/03:50am 8.2 1.9 5.6 84 1.2 W 28 30 15 16 1020.3 - 0.4
25/03:40am 8.2 1.5 5.5 83 1.3 W 30 35 16 19 1020.3 - 0.4
25/03:30am 8.0 2.0 5.3 83 1.3 W 26 39 14 21 1020.5 - 0.2
25/03:20am 8.0 2.1 5.9 86 1.0 W 26 30 14 16 1020.3 - 0.2
25/03:10am 7.9 1.4 6.4 90 0.7 W 30 32 16 17 1020.3 - 0.2
25/03:00am 7.9 2.7 7.3 96 0.3 W 24 28 13 15 1020.2 - 0.2
25/02:50am 8.0 2.9 7.8 99 0.1 W 24 26 13 14 1020.3 - 0.2
25/02:40am 7.9 2.5 7.9 100 0.0 W 26 30 14 16 1020.2 - 0.2
25/02:30am 7.8 2.4 7.8 100 0.0 W 26 32 14 17 1020.2 - 0.2
25/02:20am 7.9 2.5 7.9 100 0.0 WNW 26 28 14 15 1020.3 - 0.2
25/02:10am 7.9 2.9 7.9 100 0.0 WNW 24 30 13 16 1020.5 - 0.2
25/02:00am 8.0 3.7 8.0 100 0.0 WNW 20 22 11 12 1020.2 - 0.2
25/01:50am 8.1 4.1 8.1 100 0.0 WNW 19 20 10 11 1020.2 - 0.2
25/01:40am 8.1 3.5 8.1 100 0.0 WNW 22 24 12 13 1020.1 - 0.2
25/01:30am 8.2 4.0 8.2 100 0.0 WNW 20 24 11 13 1020.1 - 0.2
25/01:20am 8.2 3.6 8.2 100 0.0 NW 22 24 12 13 1020.0 - 0.2
25/01:10am 8.2 3.6 8.2 100 0.0 NW 22 24 12 13 1020.0 - 0.2
25/01:00am 8.2 3.6 8.2 100 0.0 NW 22 22 12 12 1020.0 - 0.0
25/12:50am 8.2 4.0 8.2 100 0.0 NW 20 22 11 12 1020.2 - 0.0
25/12:40am 8.3 4.7 8.2 99 0.1 NW 17 20 9 11 1020.1 - 0.0
25/12:30am 8.2 4.6 8.2 100 0.0 NW 17 19 9 10 1020.2 - 0.0
25/12:20am 8.2 4.6 8.2 100 0.0 NNW 17 19 9 10 1020.2 - 0.0
25/12:10am 8.2 4.9 8.2 100 0.0 NNW 15 19 8 10 1020.2 - 0.0
25/12:00am 8.3 5.4 8.3 100 0.0 NNW 13 15 7 8 1020.3 - 0.0
 
Date/Time
EST
Temp
°C
App
Temp
°C
Dew
Point
°C
Rel
Hum
%
Delta-T
°C
Wind Press
QNH
hPa
Press
MSL
hPa
Rain since
9am
mm
Dir  Spd
km/h
Gust
km/h
Spd
kts
Gust
kts
24/11:50pm 8.3 5.1 8.3 100 0.0 NW 15 19 8 10 1020.3 - 0.0
24/11:40pm 8.3 5.1 8.3 100 0.0 NW 15 17 8 9 1020.3 - 0.0
24/11:30pm 8.5 5.7 8.4 99 0.1 NW 13 17 7 9 1020.5 - 0.0
24/11:20pm 8.6 5.1 8.6 100 0.0 NW 17 22 9 12 1020.4 - 0.0
24/11:10pm 8.7 4.6 8.7 100 0.0 NW 20 26 11 14 1020.5 - 0.0
24/11:00pm 8.7 4.8 8.5 99 0.1 NW 19 20 10 11 1020.4 - 0.0
24/10:50pm 8.6 5.0 8.5 99 0.1 NW 17 20 9 11 1020.4 - 0.0
24/10:40pm 8.6 5.4 8.5 99 0.1 NW 15 17 8 9 1020.4 - 0.0
24/10:30pm 8.7 3.4 8.5 99 0.1 WNW 26 33 14 18 1020.4 - 0.0
24/10:20pm 8.8 3.5 8.5 98 0.2 WNW 26 32 14 17 1020.3 - 0.0
24/10:10pm 8.9 3.5 8.2 95 0.4 WNW 26 33 14 18 1020.3 - 0.0
24/10:00pm 9.0 2.9 8.2 95 0.4 WNW 30 37 16 20 1020.3 - 0.0
24/09:50pm 9.1 3.7 7.8 92 0.6 WNW 26 37 14 20 1020.4 - 0.0
24/09:40pm 9.1 4.1 7.9 92 0.6 WNW 24 26 13 14 1020.2 - 0.0
24/09:30pm 9.2 4.1 7.6 90 0.8 WNW 24 30 13 16 1020.1 - 0.0
24/09:20pm 9.2 4.5 7.6 90 0.8 WNW 22 26 12 14 1020.2 - 0.0
24/09:10pm 9.3 4.2 7.5 88 0.9 NW 24 28 13 15 1020.1 - 0.0
24/09:00pm 9.3 3.4 7.4 88 0.9 WNW 28 30 15 16 1020.1 - 0.0
24/08:50pm 9.3 3.0 7.5 88 0.9 WNW 30 33 16 18 1019.8 - 0.0
24/08:40pm 9.3 4.1 7.3 87 1.0 WNW 24 32 13 17 1020.1 - 0.0
24/08:30pm 9.5 4.3 7.3 86 1.1 NW 24 30 13 16 1019.9 - 0.0
24/08:20pm 9.6 4.8 7.3 85 1.1 WNW 22 28 12 15 1019.8 - 0.0
24/08:10pm 9.6 5.2 7.3 85 1.1 WNW 20 30 11 16 1019.8 - 0.0
24/08:00pm 9.6 4.4 7.3 85 1.1 NW 24 32 13 17 1019.8 - 0.0
24/07:50pm 9.6 5.2 7.5 87 1.0 NW 20 26 11 14 1019.7 - 0.0
24/07:40pm 9.6 5.4 7.4 86 1.1 NW 19 24 10 13 1019.8 - 0.0
24/07:30pm 9.7 4.5 7.4 85 1.1 NW 24 28 13 15 1019.6 - 0.0
24/07:20pm 9.5 5.1 7.3 86 1.1 NW 20 28 11 15 1019.5 - 0.0
24/07:10pm 9.5 5.3 7.5 87 1.0 NW 19 22 10 12 1019.3 - 0.0
24/07:00pm 9.5 4.7 7.4 87 1.0 NW 22 28 12 15 1019.1 - 0.0
24/06:50pm 9.7 3.0 7.4 85 1.1 NW 32 41 17 22 1019.0 - 0.0
24/06:40pm 9.8 3.9 7.3 84 1.2 WNW 28 32 15 17 1019.0 - 0.0
24/06:30pm 9.8 3.1 7.3 84 1.2 WNW 32 39 17 21 1018.8 - 0.0
24/06:20pm 9.8 3.1 7.2 84 1.3 WNW 32 41 17 22 1018.8 - 0.0
24/06:10pm 9.6 3.6 7.2 85 1.2 NW 28 33 15 18 1018.8 - 0.0
24/06:00pm 9.6 2.9 7.3 85 1.1 NW 32 44 17 24 1018.7 - 0.0
24/05:50pm 9.9 2.2 7.3 84 1.3 WNW 37 41 20 22 1018.5 - 0.0
24/05:40pm 9.9 2.2 7.2 83 1.3 WNW 37 43 20 23 1018.7 - 0.0
24/05:30pm 9.9 2.2 7.0 82 1.4 WNW 37 43 20 23 1018.6 - 0.0
24/05:20pm 9.9 1.8 7.1 83 1.4 WNW 39 44 21 24 1018.5 - 0.0
24/05:10pm 9.9 1.0 6.9 81 1.5 WNW 43 50 23 27 1018.5 - 0.0
24/05:00pm 9.9 2.6 7.0 82 1.4 WNW 35 41 19 22 1018.2 - 0.0
24/04:50pm 10.0 1.5 7.1 82 1.4 WNW 41 50 22 27 1018.5 - 0.0
24/04:40pm 10.2 2.0 6.6 78 1.8 WNW 39 46 21 25 1018.2 - 0.0
24/04:30pm 10.3 2.6 7.0 80 1.6 WNW 37 46 20 25 1018.2 - 0.0
24/04:20pm 10.4 3.4 7.0 79 1.7 WNW 33 44 18 24 1018.3 - 0.0
24/04:10pm 10.5 1.6 6.7 77 1.9 WNW 43 48 23 26 1018.2 - 0.0
24/04:00pm 10.7 1.8 6.7 76 2.0 WNW 43 48 23 26 1018.0 - 0.0
24/03:50pm 10.9 4.5 7.0 77 1.9 WNW 30 37 16 20 1018.2 - 0.0
24/03:40pm 10.8 4.8 7.1 78 1.8 WNW 28 33 15 18 1018.1 - 0.0
24/03:30pm 10.5 3.2 7.4 81 1.5 WNW 35 48 19 26 1017.8 - 0.0
24/03:20pm 10.5 3.6 7.4 81 1.5 WNW 33 44 18 24 1017.9 - 0.0
24/03:10pm 10.4 3.5 7.3 81 1.5 WNW 33 43 18 23 1018.2 - 0.0
24/03:00pm 10.5 2.4 7.2 80 1.6 WNW 39 43 21 23 1018.0 - 0.0
24/02:50pm 10.6 0.8 7.0 78 1.8 WNW 48 56 26 30 1018.0 - 0.0
24/02:40pm 10.7 0.5 6.9 77 1.9 WNW 50 59 27 32 1017.6 - 0.0
24/02:30pm 10.9 1.8 6.9 76 2.0 WNW 44 56 24 30 1017.2 - 0.0
24/02:20pm 10.9 1.0 6.7 75 2.1 WNW 48 57 26 31 1017.6 - 0.0
24/02:10pm 11.0 1.1 6.8 75 2.1 WNW 48 57 26 31 1017.7 - 0.0
24/02:00pm 10.9 1.9 6.4 74 2.2 WNW 43 46 23 25 1017.8 - 0.0
24/01:50pm 10.7 1.7 6.6 76 2.0 WNW 43 50 23 27 1018.7 - 0.0
24/01:40pm 10.8 2.7 7.0 77 1.9 WNW 39 43 21 23 1017.9 - 0.0
24/01:30pm 11.0 1.9 7.0 76 2.0 WNW 44 54 24 29 1017.9 - 0.0
24/01:20pm 11.3 4.0 7.2 76 2.0 WNW 35 41 19 22 1018.2 - 0.0
24/01:10pm 11.4 3.7 7.1 75 2.1 WNW 37 48 20 26 1018.0 - 0.0
24/01:00pm 11.1 2.1 7.4 78 1.9 WNW 44 56 24 30 1018.2 - 0.0
24/12:50pm 10.9 1.4 6.8 76 2.0 WNW 46 56 25 30 1018.7 - 0.0
24/12:40pm 10.6 1.8 7.4 80 1.6 WNW 43 54 23 29 1018.5 - 0.0
24/12:30pm 10.4 1.7 7.5 82 1.4 WNW 43 48 23 26 1018.4 - 0.0
24/12:20pm 10.3 2.3 7.4 82 1.4 WNW 39 44 21 24 1018.9 - 0.0
24/12:10pm 10.2 2.2 7.3 82 1.4 WNW 39 48 21 26 1018.9 - 0.0
24/12:00pm 10.2 3.9 7.4 83 1.4 WNW 30 39 16 21 1018.7 - 0.0
24/11:50am 10.1 3.4 7.5 84 1.3 NW 32 37 17 20 1019.1 - 0.0
24/11:40am 9.8 3.1 7.5 85 1.1 NW 32 37 17 20 1019.0 - 0.0
24/11:30am 9.7 1.6 7.2 84 1.2 NW 39 46 21 25 1019.1 - 0.0
24/11:20am 9.6 1.6 7.3 85 1.1 NW 39 43 21 23 1019.1 - 0.0
24/11:10am 9.5 1.4 7.1 85 1.2 NW 39 43 21 23 1019.1 - 0.0
24/11:00am 9.4 2.5 7.1 85 1.1 NW 33 39 18 21 1019.3 - 0.0
24/10:50am 9.3 2.9 7.1 86 1.1 NW 30 35 16 19 1019.6 - 0.0
24/10:40am 9.2 2.4 7.1 87 1.0 WNW 32 37 17 20 1019.8 - 0.0
24/10:30am 9.1 2.3 7.1 87 1.0 WNW 32 39 17 21 1020.2 - 0.0
24/10:20am 9.0 2.2 6.9 87 1.0 WNW 32 35 17 19 1020.1 - 0.0
24/10:10am 9.1 2.3 6.9 86 1.1 WNW 32 37 17 20 1020.1 - 0.0
24/10:00am 9.0 2.0 7.0 87 1.0 WNW 33 48 18 26 1020.0 - 0.0
24/09:50am 8.9 1.5 6.7 86 1.1 WNW 35 46 19 25 1020.0 - 0.0
24/09:40am 8.9 2.4 6.7 86 1.1 WNW 30 46 16 25 1020.7 - 0.0
24/09:30am 8.8 4.3 6.9 88 0.9 WNW 20 28 11 15 1020.2 - 0.0
24/09:20am 8.7 3.1 7.0 89 0.8 NW 26 35 14 19 1020.1 - 0.0
24/09:10am 8.7 1.9 6.9 88 0.9 NW 32 39 17 21 1019.7 - 0.0
24/09:00am 8.7 2.7 7.0 89 0.8 NW 28 32 15 17 1020.0 - 0.2
24/08:50am 8.6 2.2 6.8 88 0.9 NW 30 37 16 20 1019.9 - 0.2
24/08:40am 8.6 1.8 6.9 89 0.8 NW 32 35 17 19 1020.0 - 0.2
24/08:30am 8.6 1.6 6.9 89 0.8 NW 33 41 18 22 1020.1 - 0.2
24/08:20am 8.5 3.2 7.0 90 0.7 NW 24 30 13 16 1020.2 - 0.2
24/08:10am 8.4 2.7 6.8 90 0.8 NW 26 33 14 18 1020.1 - 0.2
24/08:00am 8.3 3.4 7.1 92 0.6 NW 22 28 12 15 1020.1 - 0.2
24/07:50am 8.3 2.7 7.1 92 0.6 NW 26 28 14 15 1020.0 - 0.2
24/07:40am 8.3 2.3 7.0 91 0.6 NW 28 33 15 18 1020.0 - 0.2
24/07:30am 8.3 2.0 7.2 93 0.5 NW 30 37 16 20 1019.8 - 0.2
24/07:20am 8.2 2.6 7.2 93 0.5 NW 26 35 14 19 1020.0 - 0.2
24/07:10am 8.0 2.5 7.4 96 0.3 NW 26 30 14 16 1020.2 - 0.2
24/07:00am 8.1 2.2 7.4 95 0.3 NW 28 30 15 16 1020.0 - 0.2
24/06:50am 8.1 2.2 7.6 97 0.2 NW 28 32 15 17 1020.0 - 0.2
24/06:40am 8.2 1.9 7.6 96 0.3 NW 30 33 16 18 1020.1 - 0.2
24/06:30am 8.3 2.4 7.3 93 0.5 NW 28 37 15 20 1020.2 - 0.2
24/06:20am 8.2 2.3 7.5 95 0.3 NW 28 33 15 18 1020.2 - 0.2
24/06:10am 8.2 2.7 7.5 95 0.3 NW 26 30 14 16 1020.1 - 0.2
24/06:00am 8.0 3.3 7.7 98 0.1 NW 22 26 12 14 1020.2 - 0.2
24/05:50am 8.1 3.8 7.8 98 0.1 NW 20 22 11 12 1020.3 - 0.2
24/05:40am 8.2 3.9 7.7 97 0.2 NW 20 22 11 12 1020.4 - 0.2
24/05:30am 8.2 3.5 7.7 97 0.2 NW 22 24 12 13 1020.3 - 0.2
24/05:20am 8.3 3.6 7.6 95 0.3 NW 22 26 12 14 1020.3 - 0.2
24/05:10am 8.2 3.5 7.9 98 0.1 NW 22 28 12 15 1020.5 - 0.2
24/05:00am 8.1 3.5 8.1 100 0.0 NW 22 28 12 15 1020.4 - 0.2
24/04:50am 8.1 3.5 8.1 100 0.0 NW 22 24 12 13 1020.4 - 0.2
24/04:40am 8.1 3.5 8.1 100 0.0 NW 22 24 12 13 1020.3 - 0.2
24/04:30am 8.1 3.1 8.1 100 0.0 NW 24 28 13 15 1020.5 - 0.2
24/04:20am 8.2 2.8 8.1 99 0.0 NW 26 30 14 16 1020.3 - 0.2
24/04:10am 8.2 2.8 8.2 100 0.0 NW 26 30 14 16 1020.4 - 0.2
24/04:00am 8.3 2.6 8.3 100 0.0 NW 28 32 15 17 1020.3 - 0.2
24/03:50am 8.4 2.3 8.4 100 0.0 NW 30 35 16 19 1020.5 - 0.2
24/03:40am 8.4 3.1 8.4 100 0.0 NW 26 30 14 16 1020.7 - 0.2
24/03:30am 8.6 2.9 8.5 99 0.1 NW 28 32 15 17 1020.9 - 0.2
24/03:20am 8.7 3.0 8.5 99 0.1 WNW 28 33 15 18 1021.0 - 0.2
24/03:10am 8.7 2.7 8.5 99 0.1 WNW 30 33 16 18 1021.0 - 0.2
24/03:00am 8.7 2.1 8.5 99 0.1 WNW 33 41 18 22 1021.2 - 0.2
24/02:50am 8.6 2.2 8.6 100 0.0 WNW 32 35 17 19 1021.1 - 0.2
24/02:40am 8.7 1.7 8.5 99 0.1 WNW 35 41 19 22 1021.1 - 0.2
24/02:30am 8.5 1.9 8.5 100 0.0 WNW 33 37 18 20 1021.2 - 0.2
24/02:20am 8.5 1.5 8.5 100 0.0 WNW 35 41 19 22 1021.1 - 0.2
24/02:10am 8.4 1.4 8.4 100 0.0 WNW 35 37 19 20 1021.3 - 0.2
24/02:00am 8.3 1.6 8.3 100 0.0 WNW 33 39 18 21 1021.3 - 0.2
24/01:50am 8.1 1.4 8.1 100 0.0 WNW 33 39 18 21 1021.4 - 0.2
24/01:40am 8.1 1.9 8.0 99 0.0 WNW 30 37 16 20 1021.7 - 0.2
24/01:30am 8.0 2.6 8.0 100 0.0 WNW 26 28 14 15 1021.5 - 0.2
24/01:20am 8.0 3.0 8.0 100 0.0 WNW 24 28 13 15 1021.4 - 0.2
24/01:10am 7.9 3.6 7.9 100 0.0 NW 20 24 11 13 1021.4 - 0.2
24/01:00am 7.9 3.8 7.9 100 0.0 WNW 19 20 10 11 1021.6 - 0.2
24/12:50am 8.0 3.9 8.0 100 0.0 WNW 19 22 10 12 1021.7 - 0.2
24/12:40am 8.0 3.7 8.0 100 0.0 WNW 20 22 11 12 1021.9 - 0.2
24/12:30am 8.1 4.1 8.1 100 0.0 WNW 19 20 10 11 1021.9 - 0.0
24/12:20am 8.2 4.0 8.2 100 0.0 WNW 20 24 11 13 1022.0 - 0.0
24/12:10am 8.3 4.2 8.0 98 0.1 WNW 19 20 10 11 1022.1 - 0.0
24/12:00am 8.3 4.0 7.9 97 0.2 WNW 20 24 11 13 1022.3 - 0.0
 
Date/Time
EST
Temp
°C
App
Temp
°C
Dew
Point
°C
Rel
Hum
%
Delta-T
°C
Wind Press
QNH
hPa
Press
MSL
hPa
Rain since
9am
mm
Dir  Spd
km/h
Gust
km/h
Spd
kts
Gust
kts
23/11:50pm 8.3 4.0 7.8 97 0.2 WNW 20 26 11 14 1022.4 - 0.0
23/11:40pm 8.3 4.0 7.7 96 0.3 WNW 20 24 11 13 1022.5 - 0.0
23/11:30pm 8.2 3.5 7.6 96 0.3 WNW 22 28 12 15 1022.4 - 0.0
23/11:20pm 8.1 3.4 7.7 97 0.2 NW 22 26 12 14 1022.3 - 0.0
23/11:10pm 8.1 3.3 7.5 96 0.3 NW 22 26 12 14 1022.4 - 0.0
23/11:00pm 7.9 4.1 7.5 97 0.2 NW 17 22 9 12 1022.6 - 0.0
23/10:50pm 8.0 3.6 7.3 95 0.3 WNW 20 26 11 14 1022.6 - 0.0
23/10:40pm 7.9 3.5 7.3 96 0.3 WNW 20 24 11 13 1022.5 - 0.0
23/10:30pm 7.8 3.6 7.3 97 0.2 NW 19 24 10 13 1022.6 - 0.0
23/10:20pm 7.8 3.9 7.3 97 0.2 NW 17 19 9 10 1022.6 - 0.0
23/10:10pm 7.9 3.8 7.7 99 0.1 NNW 19 20 10 11 1022.7 - 0.0
23/10:00pm 8.2 4.4 7.5 95 0.3 NNW 17 20 9 11 1022.8 - 0.0
23/09:50pm 8.2 4.7 7.1 93 0.5 NNW 15 19 8 10 1022.8 - 0.0
23/09:40pm 8.3 5.2 7.4 94 0.4 NW 13 17 7 9 1022.8 - 0.0
23/09:30pm 8.2 3.8 7.6 96 0.3 W 20 24 11 13 1022.9 - 0.0
23/09:20pm 8.1 3.5 8.0 99 0.0 WNW 22 26 12 14 1023.0 - 0.0
23/09:10pm 8.1 3.8 7.9 99 0.1 WNW 20 24 11 13 1022.8 - 0.0
23/09:00pm 8.0 4.3 8.0 100 0.0 WNW 17 20 9 11 1022.9 - 0.0
23/08:50pm 8.0 3.7 8.0 100 0.0 WNW 20 24 11 13 1022.8 - 0.0
23/08:40pm 8.2 3.6 8.2 100 0.0 WNW 22 26 12 14 1022.7 - 0.0
23/08:30pm 8.3 4.0 8.0 98 0.1 NW 20 24 11 13 1022.7 - 0.0
23/08:20pm 8.4 4.1 7.8 96 0.3 NW 20 24 11 13 1022.7 - 0.0
23/08:10pm 8.4 3.7 7.7 95 0.3 WNW 22 26 12 14 1022.9 - 0.0
23/08:00pm 8.3 3.6 7.8 97 0.2 NW 22 24 12 13 1022.8 - 0.0
23/07:50pm 8.4 3.4 7.9 97 0.2 NW 24 28 13 15 1022.8 - 0.0
23/07:40pm 8.3 3.3 7.9 97 0.2 WNW 24 28 13 15 1022.7 - 0.0
23/07:30pm 8.2 3.9 7.9 98 0.1 NW 20 24 11 13 1022.7 - 0.0
23/07:20pm 8.2 4.1 8.0 99 0.1 NW 19 26 10 14 1022.8 - 0.0
23/07:10pm 8.2 3.5 7.8 97 0.2 NW 22 32 12 17 1022.7 - 0.0
23/07:00pm 8.2 3.9 7.8 97 0.2 NW 20 24 11 13 1022.6 - 0.0
23/06:50pm 8.0 3.3 7.9 99 0.0 NW 22 26 12 14 1022.5 - 0.0
23/06:40pm 8.1 3.0 7.8 98 0.1 NW 24 28 13 15 1022.5 - 0.0
23/06:30pm 8.1 2.7 7.8 98 0.1 NW 26 32 14 17 1022.6 - 0.0
23/06:20pm 8.1 2.7 7.8 98 0.1 WNW 26 30 14 16 1022.6 - 0.0
23/06:10pm 8.0 3.3 7.9 99 0.0 NW 22 26 12 14 1022.5 - 0.0
23/06:00pm 8.1 3.4 7.9 99 0.1 NW 22 28 12 15 1022.5 - 0.0
23/05:50pm 8.1 3.5 8.0 99 0.0 NW 22 26 12 14 1022.4 - 0.0
23/05:40pm 8.0 3.4 8.0 100 0.0 NW 22 30 12 16 1022.3 - 0.0
23/05:30pm 8.0 3.4 8.0 100 0.0 NW 22 30 12 16 1022.4 - 0.0
23/05:20pm 8.0 3.0 8.0 100 0.0 NW 24 32 13 17 1022.4 - 0.0
23/05:10pm 8.0 3.7 8.0 100 0.0 NW 20 22 11 12 1022.5 - 0.0
23/05:00pm 8.0 3.7 8.0 100 0.0 NW 20 26 11 14 1022.5 - 0.0
23/04:50pm 8.0 3.7 8.0 100 0.0 NW 20 28 11 15 1022.5 - 0.0
23/04:40pm 8.1 3.9 8.1 100 0.0 NW 20 26 11 14 1022.5 - 0.0
23/04:30pm 8.2 3.2 8.2 100 0.0 NNW 24 28 13 15 1022.7 - 0.0
23/04:20pm 8.3 4.1 8.3 100 0.0 NNW 20 24 11 13 1022.5 - 0.0
23/04:10pm 8.4 4.2 8.4 100 0.0 NW 20 26 11 14 1022.5 - 0.0
23/04:00pm 8.7 4.6 8.6 99 0.1 NW 20 28 11 15 1022.5 - 0.0
23/03:50pm 9.0 4.8 8.3 95 0.4 NW 20 28 11 15 1022.8 - 0.0
23/03:40pm 9.1 4.1 8.0 93 0.6 WNW 24 32 13 17 1022.9 - 0.0
23/03:30pm 9.1 3.6 7.6 90 0.7 WNW 26 32 14 17 1022.9 - 0.0
23/03:20pm 9.2 3.7 7.7 90 0.7 WNW 26 30 14 16 1022.8 - 0.0
23/03:10pm 9.0 3.6 7.9 93 0.5 WNW 26 33 14 18 1022.9 - 0.0
23/03:00pm 8.8 3.4 8.1 95 0.4 WNW 26 30 14 16 1023.1 - 0.0
23/02:50pm 9.2 3.8 8.0 92 0.6 WNW 26 30 14 16 1023.0 - 0.0
23/02:40pm 9.5 3.5 7.2 85 1.1 W 28 33 15 18 1023.0 - 0.0
23/02:30pm 9.8 2.9 7.2 84 1.3 W 33 41 18 22 1023.0 - 0.0
23/02:20pm 9.8 3.5 7.3 84 1.2 W 30 35 16 19 1023.1 - 0.0
23/02:10pm 9.8 3.5 7.4 85 1.2 W 30 35 16 19 1023.1 - 0.0
23/02:00pm 9.7 4.1 7.2 84 1.2 W 26 32 14 17 1023.3 - 0.0
23/01:50pm 9.5 5.3 8.1 91 0.7 WNW 20 26 11 14 1023.5 - 0.0
23/01:40pm 9.0 3.2 8.0 93 0.5 WNW 28 33 15 18 1023.7 - 0.0
23/01:30pm 9.2 4.2 8.0 92 0.6 WNW 24 28 13 15 1023.9 - 0.0
23/01:20pm 9.1 3.7 8.2 94 0.5 WNW 26 30 14 16 1023.9 - 0.0
23/01:10pm 9.0 4.9 8.7 98 0.2 NW 20 30 11 16 1024.2 - 0.0
23/01:00pm 8.9 5.1 8.9 100 0.0 NW 19 22 10 12 1024.4 - 0.0
23/12:50pm 9.0 5.1 8.7 98 0.2 WNW 19 24 10 13 1024.5 - 0.0
23/12:40pm 9.1 4.5 8.2 94 0.5 WNW 22 26 12 14 1024.8 - 0.0
23/12:30pm 8.9 4.0 8.6 98 0.2 WNW 24 28 13 15 1025.0 - 0.0
23/12:20pm 8.8 3.9 8.6 99 0.1 WNW 24 26 13 14 1025.0 - 0.0
23/12:10pm 8.6 4.1 8.6 100 0.0 WNW 22 28 12 15 1025.2 - 0.0
23/12:00pm 8.6 4.1 8.5 99 0.1 WNW 22 28 12 15 1025.3 - 0.0
23/11:50am 8.7 4.7 8.4 98 0.2 WNW 19 22 10 12 1025.7 - 0.0
23/11:40am 8.5 4.4 8.5 100 0.0 NW 20 22 11 12 1025.8 - 0.0

Latest Capital City Observations: Canberra | Sydney | Melbourne | Brisbane | Adelaide | Perth | Hobart | Darwin

Other formats

Comma delimited format used in spreadsheet applications
http://www.bom.gov.au/fwo/IDN60903/IDN60903.99763.axf

JavaScript Object Notation format (JSON) in row-major order
http://www.bom.gov.au/fwo/IDN60903/IDN60903.99763.json

Data quality

Most of these data are generated automatically and are frequently updated. Quality checks on data are not normally performed. It is possible for incorrect values to appear. Refer to information at About Latest Weather Observations and please check the disclaimer before using these data.